43NE weather

Onion Crest Airpark
Riverdale, Nebraska, United States

Public forecast

Using degrees Fahrenheit for public forecast. Weather courtesy of forecast.io.

Closest aviation weather report (METAR) to Onion Crest Airpark

Closest report is Kearney Regional Airport, 7.3 nm (13.6 km) ESE. Retrieved 2019/10/23 13:56 UTC (6 minutes ago):

KEAR 231356Z AUTO 32014KT 10SM FEW120 09/04 A2986 RMK AO2 SLP112 T00940044

Closest aviation forecast (TAF) to Onion Crest Airpark

Closest forecast is Kearney Regional Airport, 7.3 nm (13.6 km) ESE. Retrieved 2019/10/23 12:39 UTC (1 hour ago):

TAF KEAR 231137Z 2312/2412 23011KT P6SM SCT100 BKN200 WS010/32045KT FM231400 28014G18KT P6SM SCT200 FM231700 32018G26KT P6SM FEW100 SCT200 FM240000 36014KT P6SM SCT100